createdAt,value
2018-12-29T00:03:13.718Z,49.55
2018-12-29T00:05:54.170Z,50.65
2018-12-29T00:08:33.799Z,47.08
2018-12-29T00:11:13.755Z,61.80
2018-12-29T00:13:54.102Z,48.50
2018-12-29T00:16:34.178Z,45.65
2018-12-29T00:19:14.650Z,49.10
2018-12-29T00:21:54.658Z,48.92
2018-12-29T00:24:34.411Z,47.73
2018-12-29T00:27:14.671Z,56.58
2018-12-29T00:29:54.906Z,52.93
2018-12-29T00:32:34.921Z,49.25
2018-12-29T00:35:14.901Z,50.23
2018-12-29T00:37:55.099Z,50.40
2018-12-29T00:40:35.434Z,43.33
2018-12-29T00:43:15.146Z,54.18
2018-12-29T00:45:55.346Z,47.75
2018-12-29T00:48:35.588Z,55.67
2018-12-29T00:51:15.578Z,50.28
2018-12-29T00:53:55.879Z,53.70
2018-12-29T00:56:35.898Z,48.92
2018-12-29T00:59:15.709Z,58.83
2018-12-29T01:01:56.005Z,55.15
2018-12-29T01:04:36.274Z,52.00
2018-12-29T01:07:15.741Z,60.52
2018-12-29T01:09:55.594Z,64.15
2018-12-29T01:12:35.235Z,57.30
2018-12-29T01:15:15.403Z,64.15
2018-12-29T01:17:55.698Z,64.77
2018-12-29T01:20:35.745Z,53.50
2018-12-29T01:23:15.946Z,60.63
2018-12-29T01:25:56.103Z,64.15
2018-12-29T01:28:36.526Z,60.03
2018-12-29T01:31:16.456Z,62.30
2018-12-29T01:33:56.717Z,69.37
2018-12-29T01:36:36.515Z,63.58
2018-12-29T01:39:16.708Z,61.25
2018-12-29T01:41:56.863Z,73.15
2018-12-29T01:44:36.752Z,60.75
2018-12-29T01:47:16.926Z,58.10
2018-12-29T01:49:57.214Z,72.40
2018-12-29T01:52:37.148Z,63.92
2018-12-29T01:55:16.842Z,70.57
2018-12-29T01:57:56.335Z,71.28
2018-12-29T02:00:36.594Z,68.28
2018-12-29T02:03:16.572Z,73.33
2018-12-29T02:05:56.698Z,72.72
2018-12-29T02:08:37.028Z,68.42
2018-12-29T02:11:16.938Z,71.00
2018-12-29T02:13:57.015Z,74.53
2018-12-29T02:16:37.785Z,70.52
2018-12-29T02:19:17.966Z,64.12
2018-12-29T02:21:57.854Z,65.35
2018-12-29T02:24:37.968Z,66.47
2018-12-29T02:27:17.751Z,85.20
2018-12-29T02:29:58.138Z,80.65
2018-12-29T02:32:40.962Z,66.97
2018-12-29T02:35:21.408Z,71.57
2018-12-29T02:38:01.445Z,64.15
2018-12-29T02:40:41.487Z,71.67
2018-12-29T02:43:21.779Z,76.15
2018-12-29T02:46:01.846Z,78.55
2018-12-29T02:48:42.123Z,65.25
2018-12-29T02:51:21.948Z,75.78
2018-12-29T02:54:02.082Z,74.25
2018-12-29T02:56:42.179Z,65.32
2018-12-29T02:59:22.534Z,60.63
2018-12-29T03:02:02.622Z,76.95
2018-12-29T03:04:42.550Z,61.20
2018-12-29T03:07:22.380Z,84.50
2018-12-29T03:10:02.763Z,73.75
2018-12-29T03:12:42.407Z,58.23
2018-12-29T03:15:22.594Z,68.45
2018-12-29T03:18:02.741Z,63.28
2018-12-29T03:20:42.891Z,64.05
2018-12-29T03:23:22.750Z,66.90
2018-12-29T03:26:02.777Z,75.90
2018-12-29T03:28:42.779Z,61.23
2018-12-29T03:31:23.212Z,63.80
2018-12-29T03:34:03.235Z,84.75
2018-12-29T03:36:43.859Z,62.80
2018-12-29T03:39:23.907Z,55.52
2018-12-29T03:42:03.907Z,61.13
2018-12-29T03:44:43.926Z,56.13
2018-12-29T03:47:24.065Z,56.28
2018-12-29T03:50:04.116Z,61.92
2018-12-29T03:52:45.842Z,64.62
2018-12-29T03:55:26.162Z,66.20
2018-12-29T03:58:06.190Z,67.22
2018-12-29T04:00:46.426Z,64.72
2018-12-29T04:03:26.770Z,55.10
2018-12-29T04:06:06.536Z,63.08
2018-12-29T04:08:46.683Z,56.23
2018-12-29T04:11:26.906Z,55.95
2018-12-29T04:14:06.676Z,63.60
2018-12-29T04:16:46.983Z,56.48
2018-12-29T04:19:26.606Z,50.35
2018-12-29T04:22:06.807Z,52.53
2018-12-29T04:24:46.843Z,70.25
2018-12-29T04:27:27.158Z,55.35
2018-12-29T04:30:06.898Z,64.95
2018-12-29T04:32:47.493Z,64.67
2018-12-29T04:35:27.415Z,62.60
2018-12-29T04:38:07.513Z,57.05
2018-12-29T04:40:47.441Z,63.98
2018-12-29T04:43:27.788Z,62.10
2018-12-29T04:46:07.826Z,68.15
2018-12-29T04:48:47.891Z,60.70
2018-12-29T04:51:27.821Z,52.35
2018-12-29T04:54:07.969Z,57.62
2018-12-29T04:56:48.049Z,56.20
2018-12-29T04:59:28.514Z,54.58
2018-12-29T05:02:08.531Z,60.67
2018-12-29T05:04:48.846Z,63.33
2018-12-29T05:07:29.034Z,55.83
2018-12-29T05:10:09.306Z,58.33
2018-12-29T05:12:49.623Z,61.92
2018-12-29T05:15:29.351Z,64.92
2018-12-29T05:18:09.439Z,59.88
2018-12-29T05:20:49.737Z,55.60
2018-12-29T05:23:29.727Z,51.20
2018-12-29T05:26:09.819Z,57.62
2018-12-29T05:28:49.512Z,57.70
2018-12-29T05:31:29.778Z,46.33
2018-12-29T05:34:09.962Z,57.67
2018-12-29T05:36:49.741Z,61.73
2018-12-29T05:39:30.020Z,46.48
2018-12-29T05:42:09.894Z,68.78
2018-12-29T05:44:50.331Z,58.58
2018-12-29T05:47:30.378Z,60.20
2018-12-29T05:50:10.345Z,60.63
2018-12-29T05:52:50.882Z,65.72
2018-12-29T05:55:30.567Z,56.68
2018-12-29T05:58:10.479Z,54.35
2018-12-29T06:00:51.199Z,55.60
2018-12-29T06:03:31.079Z,58.73
2018-12-29T06:06:11.278Z,51.20
2018-12-29T06:08:51.344Z,54.03
2018-12-29T06:11:31.351Z,61.88
2018-12-29T06:14:11.447Z,55.38
2018-12-29T06:16:51.910Z,60.05
2018-12-29T06:19:31.849Z,50.98
2018-12-29T06:22:11.864Z,49.10
2018-12-29T06:24:51.882Z,54.45
2018-12-29T06:27:32.314Z,51.90
2018-12-29T06:30:12.454Z,59.83
2018-12-29T06:32:52.417Z,58.28
2018-12-29T06:35:32.449Z,51.92
2018-12-29T06:38:12.518Z,55.52
2018-12-29T06:40:52.302Z,51.02
2018-12-29T06:43:32.431Z,51.88
2018-12-29T06:46:12.552Z,57.58
2018-12-29T06:48:52.922Z,59.45
2018-12-29T06:51:32.931Z,58.25
2018-12-29T06:54:12.747Z,59.20
2018-12-29T06:56:53.079Z,55.38
2018-12-29T06:59:33.162Z,60.80
2018-12-29T07:02:12.859Z,53.05
2018-12-29T07:04:53.280Z,52.35
2018-12-29T07:07:33.143Z,60.80
2018-12-29T07:10:12.994Z,68.45
2018-12-29T07:12:53.063Z,56.30
2018-12-29T07:15:33.038Z,58.10
2018-12-29T07:18:13.121Z,66.62
2018-12-29T07:20:53.426Z,63.10
2018-12-29T07:23:33.217Z,56.05
2018-12-29T07:26:13.046Z,61.35
2018-12-29T07:28:53.445Z,55.90
2018-12-29T07:31:32.942Z,53.85
2018-12-29T07:34:13.543Z,49.40
2018-12-29T07:36:53.737Z,53.48
2018-12-29T07:39:33.779Z,53.73
2018-12-29T07:42:13.718Z,51.55
2018-12-29T07:44:53.931Z,51.25
2018-12-29T07:47:33.714Z,46.30
2018-12-29T07:50:13.504Z,51.33
2018-12-29T07:52:54.073Z,53.20
2018-12-29T07:55:34.074Z,53.55
2018-12-29T07:58:13.879Z,54.00
2018-12-29T08:00:55.902Z,52.60
2018-12-29T08:03:35.582Z,54.48
2018-12-29T08:06:15.898Z,59.27
2018-12-29T08:08:55.485Z,45.98
2018-12-29T08:11:36.073Z,57.45
2018-12-29T08:14:16.343Z,51.95
2018-12-29T08:16:56.979Z,58.52
2018-12-29T08:19:38.014Z,51.63
2018-12-29T08:22:18.079Z,60.52
2018-12-29T08:24:57.629Z,55.43
2018-12-29T08:27:38.038Z,60.80
2018-12-29T08:30:17.874Z,44.60
2018-12-29T08:32:57.912Z,54.45
2018-12-29T08:35:37.778Z,53.80
2018-12-29T08:38:18.185Z,48.50
2018-12-29T08:40:58.543Z,62.03
2018-12-29T08:43:38.481Z,52.03
2018-12-29T08:46:18.155Z,46.58
2018-12-29T08:48:58.564Z,45.25
2018-12-29T08:51:38.820Z,46.98
2018-12-29T08:54:18.897Z,60.80
2018-12-29T08:56:58.906Z,53.78
2018-12-29T08:59:38.760Z,51.58
2018-12-29T09:02:19.066Z,48.73
2018-12-29T09:04:59.374Z,52.38
2018-12-29T09:07:39.294Z,324.65
2018-12-29T09:10:19.454Z,316.65
2018-12-29T09:12:59.636Z,982.30
2018-12-29T09:15:39.517Z,1410.63
2018-12-29T09:18:19.203Z,1073.75
2018-12-29T09:20:58.710Z,443.10
2018-12-29T09:23:38.850Z,480.85
2018-12-29T09:26:19.230Z,306.00
2018-12-29T09:28:58.734Z,71.95
2018-12-29T09:31:38.758Z,65.22
2018-12-29T09:34:22.374Z,61.90
2018-12-29T09:37:00.977Z,61.80
2018-12-29T09:39:40.893Z,50.78
2018-12-29T09:42:20.870Z,42.00
2018-12-29T09:45:00.671Z,54.67
2018-12-29T09:47:40.780Z,73.83
2018-12-29T09:50:20.939Z,72.03
2018-12-29T09:53:00.882Z,57.30
2018-12-29T09:58:49.398Z,121.85
2018-12-29T10:01:29.828Z,195.45
2018-12-29T10:04:10.206Z,104.25
2018-12-29T10:06:49.991Z,50.00
2018-12-29T10:09:30.047Z,52.15
2018-12-29T10:12:10.636Z,47.10
2018-12-29T10:14:50.354Z,163.90
2018-12-29T10:17:30.658Z,52.35
2018-12-29T10:26:24.109Z,292.18
2018-12-29T10:29:03.834Z,85.92
2018-12-29T10:31:43.978Z,58.35
2018-12-29T10:34:24.350Z,56.33
2018-12-29T10:37:04.200Z,955.25
2018-12-29T10:39:44.215Z,145.62
2018-12-29T10:42:24.186Z,76.02
2018-12-29T10:45:04.066Z,147.75
2018-12-29T10:47:44.567Z,141.25
2018-12-29T10:50:24.555Z,116.53
2018-12-29T10:53:04.858Z,359.35
2018-12-29T10:55:44.607Z,149.77
2018-12-29T10:58:24.973Z,445.12
2018-12-29T11:01:05.226Z,470.70
2018-12-29T11:03:45.403Z,257.48
2018-12-29T11:06:25.317Z,151.75
2018-12-29T11:09:05.154Z,48.10
2018-12-29T11:11:45.366Z,42.23
2018-12-29T11:14:25.899Z,38.85
2018-12-29T11:20:14.278Z,43.02
2018-12-29T11:22:54.389Z,38.05
2018-12-29T11:25:34.294Z,34.70
2018-12-29T11:28:14.262Z,43.48
2018-12-29T11:30:54.350Z,40.83
2018-12-29T11:33:34.162Z,41.88
2018-12-29T11:36:14.147Z,42.48
2018-12-29T11:38:54.192Z,54.85
2018-12-29T11:41:34.558Z,42.13
2018-12-29T11:44:14.325Z,47.70
2018-12-29T11:46:54.260Z,48.50
2018-12-29T11:49:33.920Z,45.03
2018-12-29T11:52:13.969Z,44.95
2018-12-29T11:54:54.251Z,46.02
2018-12-29T11:57:34.546Z,41.68
2018-12-29T12:00:14.350Z,40.40
2018-12-29T12:02:54.624Z,45.35
2018-12-29T12:05:34.789Z,42.38
2018-12-29T12:08:14.623Z,41.90
2018-12-29T12:10:54.703Z,42.93
2018-12-29T12:13:35.086Z,45.12
2018-12-29T12:16:15.226Z,42.33
2018-12-29T12:18:56.571Z,42.53
2018-12-29T12:21:36.433Z,45.17
2018-12-29T12:24:16.774Z,43.80
2018-12-29T12:26:56.935Z,38.88
2018-12-29T12:29:36.986Z,43.42
2018-12-29T12:32:16.972Z,44.00
2018-12-29T12:34:56.884Z,37.78
2018-12-29T12:37:36.938Z,42.48
2018-12-29T12:40:17.246Z,42.48
2018-12-29T12:42:57.209Z,45.67
2018-12-29T12:45:37.143Z,41.83
2018-12-29T12:48:16.965Z,52.75
2018-12-29T12:50:57.002Z,43.80
2018-12-29T12:53:37.647Z,42.60
2018-12-29T12:56:18.346Z,38.40
2018-12-29T12:58:58.073Z,38.98
2018-12-29T13:04:46.827Z,41.28
2018-12-29T13:07:26.470Z,38.92
2018-12-29T13:10:07.161Z,37.65
2018-12-29T13:12:47.943Z,38.38
2018-12-29T13:15:28.104Z,39.33
2018-12-29T13:18:12.858Z,35.55
2018-12-29T13:20:50.065Z,37.17
2018-12-29T13:23:17.440Z,40.38
2018-12-29T13:26:05.034Z,46.05
2018-12-29T13:28:53.723Z,31.00
2018-12-29T13:31:41.756Z,38.28
2018-12-29T13:34:28.820Z,36.25
2018-12-29T13:37:15.886Z,36.68
2018-12-29T13:40:02.925Z,39.88
2018-12-29T13:42:49.434Z,36.90
2018-12-29T13:45:37.214Z,34.30
2018-12-29T13:48:23.945Z,39.50
2018-12-29T13:51:11.683Z,36.70
2018-12-29T13:53:58.221Z,37.17
2018-12-29T13:56:46.846Z,42.05
2018-12-29T13:59:34.321Z,37.20
2018-12-29T14:02:16.943Z,34.63
2018-12-29T14:04:56.574Z,36.48
2018-12-29T14:07:36.849Z,39.08
2018-12-29T14:10:17.141Z,38.83
2018-12-29T14:12:44.524Z,41.28
2018-12-29T14:15:31.870Z,28.57
2018-12-29T14:18:19.222Z,34.75
2018-12-29T14:20:47.182Z,34.67
2018-12-29T14:23:14.414Z,38.78
2018-12-29T14:25:42.073Z,35.03
2018-12-29T14:28:29.616Z,33.00
2018-12-29T14:30:56.786Z,33.70
2018-12-29T14:33:43.595Z,32.67
2018-12-29T14:36:30.393Z,31.30
2018-12-29T14:39:17.127Z,32.48
2018-12-29T14:41:44.665Z,32.23
2018-12-29T14:44:31.738Z,32.10
2018-12-29T14:47:20.766Z,39.50
2018-12-29T14:50:07.762Z,29.57
2018-12-29T14:52:38.100Z,29.67
2018-12-29T14:55:25.621Z,30.52
2018-12-29T14:58:12.711Z,34.65
2018-12-29T15:01:00.044Z,28.47
2018-12-29T15:03:40.184Z,29.82
2018-12-29T15:06:20.538Z,36.00
2018-12-29T15:09:00.775Z,28.35
2018-12-29T15:11:40.741Z,29.27
2018-12-29T15:17:29.578Z,27.02
2018-12-29T15:20:09.290Z,30.00
2018-12-29T15:22:49.233Z,31.05
2018-12-29T15:25:29.738Z,29.27
2018-12-29T15:28:09.860Z,29.25
2018-12-29T15:31:03.189Z,26.95
2018-12-29T15:33:43.675Z,28.62
2018-12-29T15:36:24.347Z,29.12
2018-12-29T15:39:04.257Z,30.52
2018-12-29T15:41:44.287Z,31.75
2018-12-29T15:44:24.446Z,28.27
2018-12-29T15:47:04.665Z,30.48
2018-12-29T15:49:44.345Z,27.15
2018-12-29T15:52:24.675Z,31.60
2018-12-29T15:58:24.219Z,30.17
2018-12-29T16:01:03.726Z,28.87
2018-12-29T16:03:44.158Z,34.58
2018-12-29T16:06:24.423Z,37.45
2018-12-29T16:09:04.462Z,32.05
2018-12-29T16:11:44.985Z,32.48
2018-12-29T16:14:24.709Z,37.28
2018-12-29T16:17:05.086Z,35.98
2018-12-29T16:19:44.718Z,29.12
2018-12-29T16:22:24.877Z,35.35
2018-12-29T16:25:04.894Z,35.55
2018-12-29T16:27:44.783Z,38.38
2018-12-29T16:30:25.516Z,34.88
2018-12-29T16:33:05.552Z,36.63
2018-12-29T16:35:45.302Z,38.88
2018-12-29T16:38:25.282Z,38.48
2018-12-29T16:41:05.629Z,34.85
2018-12-29T16:43:46.097Z,33.65
2018-12-29T16:46:26.192Z,39.13
2018-12-29T16:49:06.843Z,39.75
2018-12-29T16:51:47.528Z,33.08
2018-12-29T16:54:27.842Z,37.53
2018-12-29T16:57:07.634Z,32.63
2018-12-29T16:59:48.110Z,30.80
2018-12-29T17:02:28.458Z,34.60
2018-12-29T17:05:08.400Z,33.05
2018-12-29T17:07:48.847Z,29.52
2018-12-29T17:10:29.086Z,33.18
2018-12-29T17:13:09.286Z,27.73
2018-12-29T17:15:49.311Z,31.57
2018-12-29T17:18:29.630Z,34.80
2018-12-29T17:21:09.699Z,26.33
2018-12-29T17:23:49.989Z,27.85
2018-12-29T17:26:29.943Z,28.77
2018-12-29T17:29:09.734Z,27.80
2018-12-29T17:31:50.054Z,26.75
2018-12-29T17:34:30.307Z,23.77
2018-12-29T17:37:10.636Z,22.32
2018-12-29T17:39:50.633Z,23.30
2018-12-29T17:42:30.958Z,23.05
2018-12-29T17:45:11.189Z,24.00
2018-12-29T17:47:51.155Z,23.25
2018-12-29T17:50:31.116Z,26.73
2018-12-29T17:52:59.266Z,28.87
2018-12-29T17:55:45.842Z,28.17
2018-12-29T18:01:21.662Z,21.48
2018-12-29T18:04:01.650Z,28.57
2018-12-29T18:09:34.458Z,23.52
2018-12-29T18:12:02.550Z,26.45
2018-12-29T18:14:49.597Z,27.95
2018-12-29T18:17:36.688Z,28.12
2018-12-29T18:20:23.924Z,33.67
2018-12-29T18:23:10.714Z,30.25
2018-12-29T18:25:58.614Z,29.55
2018-12-29T18:28:45.702Z,26.48
2018-12-29T18:31:32.821Z,26.62
2018-12-29T18:34:19.923Z,29.92
2018-12-29T18:37:07.359Z,29.57
2018-12-29T18:43:19.485Z,27.32
2018-12-29T18:46:06.358Z,23.85
2018-12-29T18:48:53.202Z,26.60
2018-12-29T18:51:40.415Z,22.00
2018-12-29T18:54:27.398Z,22.95
2018-12-29T18:57:14.094Z,25.65
2018-12-29T19:00:00.666Z,18.48
2018-12-29T19:02:40.887Z,17.60
2018-12-29T19:05:21.234Z,24.47
2018-12-29T19:08:01.237Z,19.42
2018-12-29T19:10:41.486Z,18.90
2018-12-29T19:13:22.634Z,21.42
2018-12-29T19:16:02.533Z,19.35
2018-12-29T19:18:42.860Z,21.23
2018-12-29T19:21:23.997Z,18.15
2018-12-29T19:24:04.602Z,16.62
2018-12-29T19:26:45.112Z,14.23
2018-12-29T19:29:24.814Z,19.17
2018-12-29T19:32:05.155Z,15.23
2018-12-29T19:34:46.410Z,16.02
2018-12-29T19:37:26.140Z,17.77
2018-12-29T19:40:06.573Z,13.55
2018-12-29T19:42:46.383Z,13.20
2018-12-29T19:45:26.688Z,12.28
2018-12-29T19:48:05.170Z,16.95
2018-12-29T19:50:52.508Z,16.15
2018-12-29T19:53:41.570Z,14.23
2018-12-29T19:56:28.425Z,12.98
2018-12-29T19:59:17.334Z,13.00
2018-12-29T20:02:04.673Z,13.13
2018-12-29T20:04:44.603Z,15.00
2018-12-29T20:07:25.762Z,14.40
2018-12-29T20:10:05.459Z,20.43
2018-12-29T20:12:45.259Z,11.63
2018-12-29T20:15:25.642Z,16.07
2018-12-29T20:18:05.842Z,12.10
2018-12-29T20:20:45.814Z,12.40
2018-12-29T20:23:13.938Z,11.93
2018-12-29T20:26:01.014Z,14.18
2018-12-29T20:28:47.834Z,10.65
2018-12-29T20:31:35.298Z,14.47
2018-12-29T20:37:10.819Z,13.98
2018-12-29T20:39:57.892Z,11.73
2018-12-29T20:42:47.027Z,9.80
2018-12-29T20:45:34.061Z,12.75
2018-12-29T20:48:21.448Z,10.35
2018-12-29T20:51:08.258Z,9.30
2018-12-29T20:53:55.338Z,9.83
2018-12-29T20:56:42.517Z,10.48
2018-12-29T20:59:29.523Z,8.38
2018-12-29T21:02:16.681Z,11.00
2018-12-29T21:04:56.502Z,9.25
2018-12-29T21:10:45.738Z,9.10
2018-12-29T21:13:25.656Z,8.63
2018-12-29T21:16:05.802Z,7.72
2018-12-29T21:18:46.367Z,8.70
2018-12-29T21:21:26.819Z,7.72
2018-12-29T21:24:26.315Z,7.45
2018-12-29T21:27:05.979Z,6.45
2018-12-29T21:29:46.408Z,12.23
2018-12-29T21:35:39.721Z,7.50
2018-12-29T21:41:45.313Z,9.60
2018-12-29T21:44:26.152Z,7.80
2018-12-29T21:47:05.581Z,7.22
2018-12-29T21:49:46.219Z,6.33
2018-12-29T21:52:26.037Z,8.60
2018-12-29T21:54:53.326Z,8.33
2018-12-29T21:57:40.662Z,8.88
2018-12-29T22:00:27.497Z,7.87
2018-12-29T22:03:07.810Z,9.30
2018-12-29T22:06:07.670Z,8.35
2018-12-29T22:12:06.687Z,8.35
2018-12-29T22:14:47.032Z,8.03
2018-12-29T22:17:26.813Z,9.83
2018-12-29T22:20:07.066Z,10.70
2018-12-29T22:22:47.302Z,10.72
2018-12-29T22:25:27.654Z,11.12
2018-12-29T22:28:07.196Z,13.22
2018-12-29T22:30:48.330Z,12.03
2018-12-29T22:33:29.255Z,12.25
2018-12-29T22:36:10.242Z,11.33
2018-12-29T22:41:56.663Z,11.78
2018-12-29T22:44:44.054Z,16.95
2018-12-29T22:47:31.180Z,12.28
2018-12-29T22:50:18.395Z,14.95
2018-12-29T22:53:05.713Z,13.88
2018-12-29T22:55:52.771Z,13.75
2018-12-29T22:58:40.162Z,11.97
2018-12-29T23:01:27.214Z,15.13
2018-12-29T23:07:12.302Z,12.15
2018-12-29T23:09:52.535Z,17.90
2018-12-29T23:12:32.678Z,17.05
2018-12-29T23:18:31.554Z,14.43
2018-12-29T23:24:30.298Z,21.27
2018-12-29T23:27:10.210Z,15.35
2018-12-29T23:29:50.259Z,16.67
2018-12-29T23:32:30.563Z,18.87
2018-12-29T23:35:10.449Z,15.13
2018-12-29T23:37:50.992Z,17.23
2018-12-29T23:40:31.213Z,16.65
2018-12-29T23:43:11.411Z,18.45
2018-12-29T23:45:51.773Z,14.43
2018-12-29T23:48:32.754Z,12.45
2018-12-29T23:51:12.547Z,19.75
2018-12-29T23:53:52.606Z,14.30
2018-12-29T23:56:32.699Z,14.13
2018-12-29T23:59:12.927Z,13.80
